Time;durP1;ratioP1;P1;durP2;ratioP2;P2;SDS_P1;SDS_P2;PMS_P1;PMS_P2;Temp;Humidity;BMP_temperature;BMP_pressure;BME280_temperature;BME280_humidity;BME280_pressure;Samples;Min_cycle;Max_cycle;Signal;HPM_P1;HPM_P2
2022/03/15 00:01:41;;;;;;;8.40;2.88;;;;;;;;;;5069800;22;20049;-87
2022/03/15 00:04:08;;;;;;;7.10;3.45;;;;;;;;;;5015628;28;20026;-87
2022/03/15 00:06:34;;;;;;;8.05;2.75;;;;;;;;;;4998529;28;20018;-87
2022/03/15 00:09:00;;;;;;;4.60;2.92;;;;;;;;;;5016511;28;20021;-87
2022/03/15 00:11:27;;;;;;;8.32;3.03;;;;;;;;;;5018532;28;20049;-87
2022/03/15 00:13:53;;;;;;;5.95;2.90;;;;;;;;;;4999447;28;20041;-86
2022/03/15 00:16:19;;;;;;;5.53;2.70;;;;;;;;;;5003305;28;20092;-86
2022/03/15 00:18:46;;;;;;;7.30;2.65;;;;;;;;;;5023697;28;20029;-85
2022/03/15 00:21:12;;;;;;;6.13;2.80;;;;;;;;;;5023454;28;20060;-87
2022/03/15 00:23:39;;;;;;;5.03;2.60;;;;;;;;;;5021678;28;20052;-88
2022/03/15 00:26:05;;;;;;;7.05;2.97;;;;;;;;;;5022715;28;20026;-88
2022/03/15 00:28:31;;;;;;;5.07;3.20;;;;;;;;;;5022697;28;20029;-87
2022/03/15 00:30:57;;;;;;;11.85;3.38;;;;;;;;;;5022426;28;20030;-87
2022/03/15 00:33:24;;;;;;;7.45;2.92;;;;;;;;;;5005109;28;20107;-87
2022/03/15 00:35:51;;;;;;;5.93;3.05;;;;;;;;;;5022758;28;20573;-87
2022/03/15 00:38:17;;;;;;;6.45;2.80;;;;;;;;;;5019532;28;20448;-87
2022/03/15 00:40:43;;;;;;;10.27;2.75;;;;;;;;;;5019944;28;20050;-87
2022/03/15 00:43:09;;;;;;;4.30;2.55;;;;;;;;;;5020861;28;20512;-86
2022/03/15 00:45:35;;;;;;;7.70;2.90;;;;;;;;;;5002761;28;20057;-86
2022/03/15 00:48:01;;;;;;;6.57;2.88;;;;;;;;;;5003303;28;20022;-87
2022/03/15 00:50:30;;;;;;;5.63;3.00;;;;;;;;;;5021891;28;20030;-87
2022/03/15 00:52:56;;;;;;;8.32;2.90;;;;;;;;;;5021557;28;20030;-87
2022/03/15 00:55:23;;;;;;;6.78;2.80;;;;;;;;;;5029017;28;20048;-87
2022/03/15 00:57:49;;;;;;;8.70;3.22;;;;;;;;;;5025221;28;20040;-86
2022/03/15 01:00:16;;;;;;;4.70;2.55;;;;;;;;;;5001196;28;20030;-88
2022/03/15 01:02:42;;;;;;;6.55;2.67;;;;;;;;;;5002645;28;20030;-86
2022/03/15 01:07:47;;;;;;;8.90;2.67;;;;;;;;;;5053285;22;20132;-88
2022/03/15 01:10:13;;;;;;;5.38;2.33;;;;;;;;;;5019219;28;20138;-86
2022/03/15 01:15:08;;;;;;;5.00;2.78;;;;;;;;;;5090285;22;20164;-85
2022/03/15 01:17:34;;;;;;;3.70;2.47;;;;;;;;;;5035504;28;20030;-86
2022/03/15 01:20:00;;;;;;;5.03;2.30;;;;;;;;;;5035094;28;20039;-85
2022/03/15 01:22:26;;;;;;;5.50;2.50;;;;;;;;;;5036109;28;20057;-85
2022/03/15 01:24:52;;;;;;;4.93;2.75;;;;;;;;;;5015618;28;20022;-86
2022/03/15 01:27:20;;;;;;;5.00;2.60;;;;;;;;;;5016256;28;20078;-86
2022/03/15 01:29:46;;;;;;;7.75;2.67;;;;;;;;;;5017363;28;20018;-85
2022/03/15 01:32:12;;;;;;;9.38;2.88;;;;;;;;;;5016306;28;20358;-86
2022/03/15 01:34:38;;;;;;;5.25;2.40;;;;;;;;;;4999830;28;20421;-87
2022/03/15 01:37:05;;;;;;;3.53;2.17;;;;;;;;;;5016820;28;20119;-88
2022/03/15 01:39:31;;;;;;;9.70;2.40;;;;;;;;;;5016983;28;20034;-86
2022/03/15 01:41:57;;;;;;;7.43;2.75;;;;;;;;;;5000536;28;20092;-87
2022/03/15 01:44:26;;;;;;;5.40;2.47;;;;;;;;;;5000683;28;20025;-86
2022/03/15 01:46:53;;;;;;;7.28;2.72;;;;;;;;;;4999852;28;20026;-86
2022/03/15 01:49:20;;;;;;;5.45;2.30;;;;;;;;;;5018721;28;20022;-86
2022/03/15 01:51:47;;;;;;;4.35;2.20;;;;;;;;;;5017841;28;20436;-86
2022/03/15 01:54:13;;;;;;;6.65;2.50;;;;;;;;;;5025645;28;20409;-87
2022/03/15 01:56:41;;;;;;;8.20;2.65;;;;;;;;;;5009294;28;20013;-86
2022/03/15 01:59:16;;;;;;;5.80;2.15;;;;;;;;;;5021782;28;20030;-87
2022/03/15 02:01:42;;;;;;;5.75;2.00;;;;;;;;;;5003632;28;20026;-87
2022/03/15 02:04:09;;;;;;;4.88;2.28;;;;;;;;;;5021009;28;20478;-86
2022/03/15 02:06:36;;;;;;;10.18;2.53;;;;;;;;;;5001322;28;20076;-87
2022/03/15 02:09:12;;;;;;;6.38;2.42;;;;;;;;;;5000912;28;20580;-87
2022/03/15 02:11:39;;;;;;;11.30;2.35;;;;;;;;;;5017994;28;20056;-87
2022/03/15 02:14:05;;;;;;;5.22;2.40;;;;;;;;;;5000099;28;20037;-87
2022/03/15 02:16:32;;;;;;;7.30;2.88;;;;;;;;;;4999954;28;20029;-87
2022/03/15 02:18:58;;;;;;;2.90;2.33;;;;;;;;;;5105689;22;20049;-86
2022/03/15 02:21:25;;;;;;;6.70;2.50;;;;;;;;;;5037961;28;20037;-86
2022/03/15 02:23:51;;;;;;;6.88;2.35;;;;;;;;;;5019924;28;20486;-87
2022/03/15 02:26:17;;;;;;;6.55;2.28;;;;;;;;;;5069861;22;20040;-86
2022/03/15 02:28:43;;;;;;;7.55;2.95;;;;;;;;;;5038044;28;20041;-87
2022/03/15 02:31:09;;;;;;;8.25;2.38;;;;;;;;;;5037849;28;20393;-87
2022/03/15 02:33:36;;;;;;;4.18;2.25;;;;;;;;;;5038257;28;20030;-86
2022/03/15 02:36:02;;;;;;;4.68;2.22;;;;;;;;;;5019372;28;20096;-84
2022/03/15 02:38:27;;;;;;;5.68;2.10;;;;;;;;;;5018044;28;20037;-86
2022/03/15 02:40:54;;;;;;;3.70;1.90;;;;;;;;;;5037024;28;20044;-86
2022/03/15 02:43:20;;;;;;;7.30;2.50;;;;;;;;;;5019764;28;20481;-86
2022/03/15 02:45:46;;;;;;;4.35;1.83;;;;;;;;;;5038043;28;20032;-86
2022/03/15 02:48:12;;;;;;;7.15;2.40;;;;;;;;;;5037743;28;20055;-87
2022/03/15 02:50:38;;;;;;;4.15;1.63;;;;;;;;;;5020033;28;20028;-87
2022/03/15 02:53:04;;;;;;;5.95;2.22;;;;;;;;;;5038140;28;20033;-87
2022/03/15 02:55:32;;;;;;;5.07;2.00;;;;;;;;;;5019514;28;20116;-87
2022/03/15 02:57:58;;;;;;;6.63;2.67;;;;;;;;;;5044198;28;20048;-86
2022/03/15 03:00:24;;;;;;;4.85;2.00;;;;;;;;;;5037130;28;20039;-86
2022/03/15 03:02:50;;;;;;;4.13;2.20;;;;;;;;;;5016361;28;20017;-85
2022/03/15 03:05:16;;;;;;;4.75;1.73;;;;;;;;;;5034495;28;20029;-85
2022/03/15 03:07:44;;;;;;;5.35;2.10;;;;;;;;;;5034605;28;20026;-86
2022/03/15 03:10:10;;;;;;;5.97;1.88;;;;;;;;;;5016521;28;20026;-85
2022/03/15 03:12:37;;;;;;;3.70;1.88;;;;;;;;;;5066844;22;21243;-85
2022/03/15 03:15:03;;;;;;;9.55;2.15;;;;;;;;;;5063646;22;20049;-84
2022/03/15 03:17:30;;;;;;;9.68;2.17;;;;;;;;;;5057234;28;20025;-83
2022/03/15 03:19:56;;;;;;;5.18;2.05;;;;;;;;;;5038416;28;20030;-83
2022/03/15 03:22:22;;;;;;;7.35;1.90;;;;;;;;;;5037108;28;20089;-83
2022/03/15 03:24:50;;;;;;;7.75;2.28;;;;;;;;;;5037270;28;20234;-83
2022/03/15 03:27:16;;;;;;;3.55;1.75;;;;;;;;;;5020612;28;20028;-83
2022/03/15 03:29:42;;;;;;;12.00;2.53;;;;;;;;;;5053415;28;20014;-83
2022/03/15 03:32:09;;;;;;;6.82;2.03;;;;;;;;;;5040248;28;20013;-82
2022/03/15 03:34:35;;;;;;;3.67;1.80;;;;;;;;;;5057818;28;20005;-82
2022/03/15 03:37:01;;;;;;;7.35;2.28;;;;;;;;;;5057559;28;20014;-81
2022/03/15 03:39:27;;;;;;;8.20;2.35;;;;;;;;;;5056571;28;20001;-83
2022/03/15 03:41:54;;;;;;;15.20;2.25;;;;;;;;;;5057107;28;20024;-82
2022/03/15 03:44:20;;;;;;;7.35;2.03;;;;;;;;;;5057323;28;20073;-82
2022/03/15 03:46:46;;;;;;;6.10;2.38;;;;;;;;;;5057413;28;20033;-83
2022/03/15 03:49:12;;;;;;;3.88;2.13;;;;;;;;;;5057981;28;20010;-82
2022/03/15 03:51:38;;;;;;;3.60;1.85;;;;;;;;;;5061214;28;20057;-82
2022/03/15 03:54:04;;;;;;;6.95;1.98;;;;;;;;;;5061472;28;20020;-83
2022/03/15 03:56:30;;;;;;;5.00;1.73;;;;;;;;;;5061326;28;20018;-83
2022/03/15 03:58:56;;;;;;;8.30;1.95;;;;;;;;;;5043980;28;20035;-81
2022/03/15 04:01:22;;;;;;;6.30;1.90;;;;;;;;;;5043672;28;20046;-84
2022/03/15 04:03:48;;;;;;;3.38;1.45;;;;;;;;;;5043978;28;20085;-83
2022/03/15 04:06:14;;;;;;;8.85;2.28;;;;;;;;;;5061238;28;20077;-82
2022/03/15 04:08:42;;;;;;;9.68;2.15;;;;;;;;;;5043951;28;20049;-84
2022/03/15 04:11:10;;;;;;;5.85;1.98;;;;;;;;;;5043713;28;20016;-83
2022/03/15 04:13:40;;;;;;;7.35;1.83;;;;;;;;;;5060995;28;20883;-82
2022/03/15 04:16:06;;;;;;;3.85;1.73;;;;;;;;;;5060992;28;20101;-82
2022/03/15 04:18:32;;;;;;;4.28;1.92;;;;;;;;;;5060593;28;20018;-82
2022/03/15 04:20:58;;;;;;;6.50;2.00;;;;;;;;;;5043212;28;20056;-82
2022/03/15 04:23:24;;;;;;;6.15;1.70;;;;;;;;;;5060876;28;20013;-83
2022/03/15 04:25:51;;;;;;;10.00;2.25;;;;;;;;;;5060794;28;20017;-82
2022/03/15 04:28:17;;;;;;;5.25;2.17;;;;;;;;;;5043411;28;20013;-82
2022/03/15 04:30:43;;;;;;;11.18;2.22;;;;;;;;;;5043123;28;20048;-85
2022/03/15 04:33:09;;;;;;;5.38;1.80;;;;;;;;;;5060622;28;20014;-83
2022/03/15 04:35:35;;;;;;;3.35;2.00;;;;;;;;;;5043320;28;20021;-83
2022/03/15 04:38:02;;;;;;;4.68;1.85;;;;;;;;;;5059496;28;20028;-82
2022/03/15 04:40:28;;;;;;;8.02;1.80;;;;;;;;;;5060009;28;20021;-83
2022/03/15 04:42:55;;;;;;;7.60;2.08;;;;;;;;;;5060436;28;20074;-83
2022/03/15 04:45:21;;;;;;;5.93;2.13;;;;;;;;;;5060385;28;20082;-82
2022/03/15 04:47:47;;;;;;;12.25;2.53;;;;;;;;;;5060422;28;20018;-82
2022/03/15 04:50:13;;;;;;;4.88;1.90;;;;;;;;;;5060133;28;20021;-82
2022/03/15 04:52:40;;;;;;;12.35;2.45;;;;;;;;;;5060375;28;20024;-82
2022/03/15 04:55:06;;;;;;;6.90;2.25;;;;;;;;;;5060146;28;20037;-82
2022/03/15 04:57:33;;;;;;;7.88;1.70;;;;;;;;;;5060204;28;20018;-82
2022/03/15 04:59:59;;;;;;;6.53;2.40;;;;;;;;;;5060263;28;20029;-83
2022/03/15 05:02:25;;;;;;;5.88;2.00;;;;;;;;;;5041996;28;20040;-83
2022/03/15 05:04:54;;;;;;;6.53;2.00;;;;;;;;;;5060034;28;20017;-84
2022/03/15 05:07:20;;;;;;;5.50;1.80;;;;;;;;;;5059863;28;20025;-83
2022/03/15 05:12:32;;;;;;;7.68;2.72;;;;;;;;;;5060070;28;20145;-83
2022/03/15 05:14:58;;;;;;;8.30;2.67;;;;;;;;;;5059634;28;20024;-82
2022/03/15 05:17:24;;;;;;;7.20;1.80;;;;;;;;;;5042363;28;20033;-82
2022/03/15 05:19:50;;;;;;;8.85;2.70;;;;;;;;;;5056300;28;20034;-84
2022/03/15 05:22:16;;;;;;;9.85;2.42;;;;;;;;;;5026863;28;20248;-84
2022/03/15 05:24:42;;;;;;;3.70;1.95;;;;;;;;;;5052141;28;20041;-83
2022/03/15 05:27:09;;;;;;;8.93;2.10;;;;;;;;;;5043001;28;20335;-83
2022/03/15 05:29:35;;;;;;;6.40;2.15;;;;;;;;;;5046184;28;20017;-83
2022/03/15 05:32:01;;;;;;;6.40;1.88;;;;;;;;;;5043287;28;20021;-83
2022/03/15 05:34:27;;;;;;;6.85;2.15;;;;;;;;;;5025897;28;20049;-85
2022/03/15 05:36:53;;;;;;;8.73;1.67;;;;;;;;;;5042971;28;20036;-82
2022/03/15 05:39:19;;;;;;;4.88;2.03;;;;;;;;;;5041623;28;20079;-83
2022/03/15 05:41:45;;;;;;;4.82;2.22;;;;;;;;;;5026503;28;20497;-84
2022/03/15 05:44:12;;;;;;;5.07;2.17;;;;;;;;;;5026583;28;20032;-85
2022/03/15 05:46:38;;;;;;;7.93;2.35;;;;;;;;;;5026358;28;20159;-84
2022/03/15 05:49:04;;;;;;;6.72;2.10;;;;;;;;;;5043138;28;20021;-82
2022/03/15 05:51:30;;;;;;;8.90;2.17;;;;;;;;;;5025135;28;20097;-84
2022/03/15 05:53:56;;;;;;;6.97;2.80;;;;;;;;;;5042942;28;20048;-84
2022/03/15 05:56:23;;;;;;;3.50;2.50;;;;;;;;;;5043232;28;20029;-84
2022/03/15 05:58:49;;;;;;;10.60;3.55;;;;;;;;;;5043811;28;20078;-84
2022/03/15 06:01:19;;;;;;;10.75;3.50;;;;;;;;;;5025992;28;20074;-83
2022/03/15 06:03:45;;;;;;;4.15;2.42;;;;;;;;;;5050957;28;20026;-85
2022/03/15 06:06:11;;;;;;;3.75;2.20;;;;;;;;;;5034296;28;20021;-83
2022/03/15 06:08:37;;;;;;;5.32;2.00;;;;;;;;;;5028390;28;20052;-84
2022/03/15 06:11:03;;;;;;;3.25;1.67;;;;;;;;;;5042874;28;20418;-83
2022/03/15 06:13:29;;;;;;;13.15;6.05;;;;;;;;;;5043707;28;20039;-85
2022/03/15 06:15:55;;;;;;;11.05;4.35;;;;;;;;;;5043508;28;20041;-83
2022/03/15 06:18:21;;;;;;;8.13;5.05;;;;;;;;;;5043517;28;20053;-83
2022/03/15 06:20:47;;;;;;;13.48;5.32;;;;;;;;;;5044385;28;20339;-83
2022/03/15 06:23:17;;;;;;;10.73;5.22;;;;;;;;;;5025290;28;20025;-83
2022/03/15 06:25:43;;;;;;;19.63;9.65;;;;;;;;;;5026409;28;20152;-85
2022/03/15 06:28:08;;;;;;;17.67;6.80;;;;;;;;;;5026486;28;20407;-83
2022/03/15 06:30:35;;;;;;;11.63;5.00;;;;;;;;;;5044403;28;20036;-84
2022/03/15 06:33:01;;;;;;;9.10;3.60;;;;;;;;;;5057107;28;20029;-85
2022/03/15 06:35:29;;;;;;;5.97;2.40;;;;;;;;;;5027399;28;20105;-84
2022/03/15 06:37:55;;;;;;;9.13;3.45;;;;;;;;;;5022955;28;20026;-84
2022/03/15 06:40:25;;;;;;;13.90;6.28;;;;;;;;;;5044046;28;20029;-84
2022/03/15 06:42:51;;;;;;;10.00;2.67;;;;;;;;;;5044311;28;20020;-85
2022/03/15 06:45:17;;;;;;;8.48;3.10;;;;;;;;;;5026555;28;20116;-84
2022/03/15 06:47:43;;;;;;;3.90;2.80;;;;;;;;;;5043080;28;20052;-86
2022/03/15 06:50:12;;;;;;;9.48;2.78;;;;;;;;;;5043530;28;20454;-85
2022/03/15 06:52:38;;;;;;;9.32;3.70;;;;;;;;;;5042583;28;20081;-85
2022/03/15 06:55:05;;;;;;;10.63;4.65;;;;;;;;;;5040931;28;20021;-82
2022/03/15 06:57:32;;;;;;;6.80;3.33;;;;;;;;;;5032103;28;20444;-84
2022/03/15 06:59:59;;;;;;;4.30;2.65;;;;;;;;;;5037280;28;20083;-82
2022/03/15 07:02:25;;;;;;;3.67;2.05;;;;;;;;;;5037492;28;20033;-82
2022/03/15 07:04:51;;;;;;;3.60;2.40;;;;;;;;;;5038078;28;20574;-84
2022/03/15 07:07:19;;;;;;;2.45;2.08;;;;;;;;;;5041111;28;20057;-83
2022/03/15 07:09:45;;;;;;;3.00;1.65;;;;;;;;;;5037526;28;20025;-83
2022/03/15 07:12:11;;;;;;;8.35;2.10;;;;;;;;;;5037214;28;20020;-84
2022/03/15 07:14:37;;;;;;;7.03;2.38;;;;;;;;;;5036814;28;20419;-84
2022/03/15 07:17:06;;;;;;;6.90;2.42;;;;;;;;;;5037211;28;20040;-84
2022/03/15 07:19:33;;;;;;;8.88;2.42;;;;;;;;;;5037071;28;20029;-84
2022/03/15 07:21:59;;;;;;;6.03;2.00;;;;;;;;;;5036046;28;20173;-83
2022/03/15 07:24:25;;;;;;;4.78;2.13;;;;;;;;;;5046691;23;20065;-83
2022/03/15 07:26:53;;;;;;;3.50;1.67;;;;;;;;;;5035326;28;20040;-83
2022/03/15 07:29:19;;;;;;;8.13;2.75;;;;;;;;;;5036815;28;20138;-82
2022/03/15 07:31:45;;;;;;;8.82;2.60;;;;;;;;;;5035044;28;20022;-83
2022/03/15 07:34:12;;;;;;;9.45;2.63;;;;;;;;;;5020032;28;20449;-83
2022/03/15 07:36:38;;;;;;;5.97;2.17;;;;;;;;;;5038599;28;20022;-82
2022/03/15 07:39:07;;;;;;;5.20;2.70;;;;;;;;;;5020543;28;20060;-84
2022/03/15 07:41:39;;;;;;;10.02;2.38;;;;;;;;;;5038862;28;20037;-83
2022/03/15 07:44:05;;;;;;;4.13;2.22;;;;;;;;;;5035625;28;20026;-84
2022/03/15 07:46:31;;;;;;;7.80;3.25;;;;;;;;;;5019335;28;20026;-83
2022/03/15 07:49:11;;;;;;;8.18;2.63;;;;;;;;;;5028979;28;20496;-83
2022/03/15 07:51:37;;;;;;;4.93;2.35;;;;;;;;;;5036220;28;20041;-84
2022/03/15 07:54:03;;;;;;;7.97;3.40;;;;;;;;;;5039750;28;20057;-83
2022/03/15 07:56:29;;;;;;;7.53;2.63;;;;;;;;;;5020001;28;20032;-83
2022/03/15 07:58:55;;;;;;;6.50;2.60;;;;;;;;;;5038124;28;20026;-84
2022/03/15 08:01:21;;;;;;;6.32;3.40;;;;;;;;;;5035340;28;20030;-84
2022/03/15 08:03:48;;;;;;;12.73;5.45;;;;;;;;;;5019550;28;20018;-84
2022/03/15 08:06:14;;;;;;;9.95;4.05;;;;;;;;;;5037410;28;20105;-84
2022/03/15 08:08:42;;;;;;;9.68;3.10;;;;;;;;;;5037738;28;20057;-84
2022/03/15 08:11:08;;;;;;;9.13;3.13;;;;;;;;;;5038137;28;20021;-82
2022/03/15 08:13:34;;;;;;;8.77;2.75;;;;;;;;;;5011481;28;20041;-83
2022/03/15 08:16:02;;;;;;;8.15;2.60;;;;;;;;;;5037221;28;20049;-84
2022/03/15 08:18:28;;;;;;;9.23;2.50;;;;;;;;;;5041203;28;20041;-83
2022/03/15 08:20:59;;;;;;;10.43;2.80;;;;;;;;;;5022006;28;20036;-85
2022/03/15 08:23:26;;;;;;;9.93;2.97;;;;;;;;;;5024749;28;20063;-83
2022/03/15 08:25:55;;;;;;;9.70;3.55;;;;;;;;;;5002716;28;20494;-84
2022/03/15 08:28:22;;;;;;;11.15;3.60;;;;;;;;;;5024615;28;20026;-84
2022/03/15 08:30:48;;;;;;;13.82;5.50;;;;;;;;;;5039581;28;20030;-85
2022/03/15 08:33:14;;;;;;;12.05;5.70;;;;;;;;;;5023896;28;20037;-84
2022/03/15 08:35:40;;;;;;;5.43;2.60;;;;;;;;;;5003789;28;20030;-84
2022/03/15 08:38:08;;;;;;;6.75;2.78;;;;;;;;;;5023755;28;20089;-84
2022/03/15 08:40:34;;;;;;;9.80;3.08;;;;;;;;;;5041963;28;20024;-84
2022/03/15 08:43:01;;;;;;;8.20;3.05;;;;;;;;;;5042327;28;20358;-85
2022/03/15 08:45:27;;;;;;;7.70;3.15;;;;;;;;;;5043418;28;20117;-85
2022/03/15 08:47:53;;;;;;;7.47;2.42;;;;;;;;;;5043579;28;20060;-85
2022/03/15 08:50:20;;;;;;;10.82;2.58;;;;;;;;;;5043604;28;20101;-85
2022/03/15 08:52:47;;;;;;;6.10;3.05;;;;;;;;;;5043557;28;20041;-85
2022/03/15 08:55:14;;;;;;;6.05;2.60;;;;;;;;;;5043180;28;20432;-85
2022/03/15 08:57:40;;;;;;;5.80;2.63;;;;;;;;;;5042475;28;20053;-83
2022/03/15 09:00:07;;;;;;;6.70;3.05;;;;;;;;;;5041603;28;20025;-84
2022/03/15 09:02:34;;;;;;;7.15;3.03;;;;;;;;;;5038329;28;20018;-84
2022/03/15 09:05:00;;;;;;;8.32;2.90;;;;;;;;;;5023604;28;20056;-83
2022/03/15 09:07:27;;;;;;;4.10;2.70;;;;;;;;;;5008641;28;20014;-80
2022/03/15 09:09:53;;;;;;;7.40;2.90;;;;;;;;;;5049674;28;20037;-82
2022/03/15 09:12:19;;;;;;;6.50;2.97;;;;;;;;;;5056044;28;20036;-83
2022/03/15 09:29:02;;;;;;;8.10;4.05;;;;;;;;;;5043543;22;20045;-85
2022/03/15 09:31:28;;;;;;;8.55;4.03;;;;;;;;;;5038475;28;20503;-85
2022/03/15 09:33:56;;;;;;;10.57;3.22;;;;;;;;;;5018075;28;20104;-83
2022/03/15 09:36:25;;;;;;;6.32;3.47;;;;;;;;;;5041680;28;20556;-85
2022/03/15 09:38:51;;;;;;;9.45;3.40;;;;;;;;;;5025862;28;20071;-86
2022/03/15 09:41:18;;;;;;;7.85;3.22;;;;;;;;;;5031193;28;20038;-90
2022/03/15 09:43:45;;;;;;;7.75;3.35;;;;;;;;;;5055533;28;20029;-84
2022/03/15 09:46:13;;;;;;;6.18;3.20;;;;;;;;;;5053797;28;20018;-85
2022/03/15 09:48:40;;;;;;;10.52;3.65;;;;;;;;;;5044853;28;20040;-83
2022/03/15 09:51:07;;;;;;;8.07;4.30;;;;;;;;;;5054460;28;20010;-84
2022/03/15 09:53:34;;;;;;;10.27;4.18;;;;;;;;;;5056844;28;20143;-86
2022/03/15 09:56:00;;;;;;;9.82;4.07;;;;;;;;;;5039363;28;20022;-84
2022/03/15 09:58:26;;;;;;;10.13;4.47;;;;;;;;;;5054870;28;20029;-84
2022/03/15 10:00:54;;;;;;;5.45;3.60;;;;;;;;;;5053651;28;20502;-84
2022/03/15 10:03:20;;;;;;;7.03;4.13;;;;;;;;;;5053127;28;20036;-87
2022/03/15 10:05:46;;;;;;;10.63;4.30;;;;;;;;;;5056747;28;20017;-85
2022/03/15 10:08:17;;;;;;;11.23;4.85;;;;;;;;;;5055958;28;20053;-84
2022/03/15 10:10:43;;;;;;;8.00;4.07;;;;;;;;;;5055781;28;20012;-86
2022/03/15 10:13:13;;;;;;;6.32;3.92;;;;;;;;;;5056204;28;20022;-86
2022/03/15 10:15:49;;;;;;;9.68;3.92;;;;;;;;;;5037777;28;20022;-86
2022/03/15 10:18:17;;;;;;;8.82;3.95;;;;;;;;;;5056357;28;20025;-85
2022/03/15 10:20:43;;;;;;;5.03;3.88;;;;;;;;;;5055796;28;20034;-84
2022/03/15 10:23:10;;;;;;;6.85;3.83;;;;;;;;;;5053008;28;20047;-87
2022/03/15 10:25:36;;;;;;;10.88;4.10;;;;;;;;;;5055866;28;20081;-85
2022/03/15 10:28:05;;;;;;;5.72;3.88;;;;;;;;;;5055624;28;20040;-87
2022/03/15 10:30:38;;;;;;;7.50;4.28;;;;;;;;;;5054611;28;20029;-85
2022/03/15 10:33:05;;;;;;;11.93;4.30;;;;;;;;;;5055963;28;20076;-86
2022/03/15 10:35:35;;;;;;;7.13;4.07;;;;;;;;;;5054885;28;20024;-83
2022/03/15 10:53:25;;;;;;;9.27;4.25;;;;;;;;;;4977537;29;20042;-83
2022/03/15 10:56:00;;;;;;;6.07;3.80;;;;;;;;;;4958943;29;20029;-84
2022/03/15 10:58:26;;;;;;;5.75;3.67;;;;;;;;;;4985945;28;20037;-84
2022/03/15 11:00:57;;;;;;;8.20;3.88;;;;;;;;;;5037559;28;20040;-84
2022/03/15 11:03:25;;;;;;;6.82;3.67;;;;;;;;;;5051057;28;20432;-87
2022/03/15 11:05:55;;;;;;;9.90;3.50;;;;;;;;;;5037612;28;20033;-84
2022/03/15 11:08:21;;;;;;;6.88;3.80;;;;;;;;;;5050110;28;20079;-82
2022/03/15 11:10:50;;;;;;;9.00;4.05;;;;;;;;;;5043664;28;20085;-84
2022/03/15 11:13:17;;;;;;;7.75;3.42;;;;;;;;;;5052851;28;20556;-83
2022/03/15 11:15:44;;;;;;;5.15;3.95;;;;;;;;;;5052529;28;20044;-83
2022/03/15 11:18:11;;;;;;;5.47;3.33;;;;;;;;;;5052944;28;20029;-85
2022/03/15 11:20:38;;;;;;;6.68;4.15;;;;;;;;;;5053014;28;20060;-84
2022/03/15 11:23:07;;;;;;;8.55;4.30;;;;;;;;;;5053297;28;20026;-85
2022/03/15 11:25:39;;;;;;;5.88;3.67;;;;;;;;;;5052821;28;20037;-85
2022/03/15 11:28:09;;;;;;;7.22;4.40;;;;;;;;;;5052142;28;20033;-85
2022/03/15 11:30:36;;;;;;;7.90;4.35;;;;;;;;;;5051702;28;20033;-84
2022/03/15 11:33:03;;;;;;;8.30;4.22;;;;;;;;;;5053100;28;20026;-85
2022/03/15 11:35:31;;;;;;;7.80;4.40;;;;;;;;;;5035044;28;20036;-86
2022/03/15 11:37:57;;;;;;;9.13;4.65;;;;;;;;;;5050150;28;20040;-85
2022/03/15 11:40:24;;;;;;;6.80;4.45;;;;;;;;;;5046129;28;20025;-84
2022/03/15 11:42:55;;;;;;;7.93;4.53;;;;;;;;;;5026987;28;20030;-84
2022/03/15 11:45:29;;;;;;;6.15;4.22;;;;;;;;;;5049977;28;20041;-84
2022/03/15 11:48:14;;;;;;;8.27;4.78;;;;;;;;;;5038925;28;20029;-83
2022/03/15 11:50:40;;;;;;;8.50;4.55;;;;;;;;;;5042894;28;20125;-80
2022/03/15 11:53:09;;;;;;;7.03;4.45;;;;;;;;;;5036728;28;20060;-82
2022/03/15 11:55:38;;;;;;;8.05;4.28;;;;;;;;;;5037422;28;20021;-81
2022/03/15 11:58:05;;;;;;;9.77;4.97;;;;;;;;;;5044614;28;20040;-80
2022/03/15 12:00:46;;;;;;;6.97;4.32;;;;;;;;;;5043441;28;20029;-82
2022/03/15 12:03:16;;;;;;;9.85;4.70;;;;;;;;;;5038403;28;20041;-84
2022/03/15 12:05:45;;;;;;;7.13;4.70;;;;;;;;;;5021037;28;20067;-83
2022/03/15 12:08:12;;;;;;;12.98;5.70;;;;;;;;;;5021627;28;20026;-86
2022/03/15 12:10:44;;;;;;;9.48;6.50;;;;;;;;;;5040471;28;20021;-85
2022/03/15 12:13:13;;;;;;;10.38;6.78;;;;;;;;;;5043225;28;20017;-83
2022/03/15 12:15:42;;;;;;;12.52;7.43;;;;;;;;;;5042400;28;20022;-85
2022/03/15 12:18:42;;;;;;;11.30;7.68;;;;;;;;;;5024435;28;20060;-84
2022/03/15 12:21:11;;;;;;;13.68;7.75;;;;;;;;;;5037225;28;20033;-85
2022/03/15 12:23:43;;;;;;;9.48;6.97;;;;;;;;;;5041867;28;20017;-83
2022/03/15 12:26:19;;;;;;;7.30;5.93;;;;;;;;;;5041212;28;20025;-84
2022/03/15 12:29:03;;;;;;;10.40;5.80;;;;;;;;;;5023973;28;20036;-85
2022/03/15 12:31:33;;;;;;;6.00;4.70;;;;;;;;;;5041656;28;20027;-84
2022/03/15 12:34:00;;;;;;;6.37;5.13;;;;;;;;;;5040259;28;20064;-84
2022/03/15 12:36:35;;;;;;;8.93;5.53;;;;;;;;;;5025276;28;20099;-85
2022/03/15 12:39:09;;;;;;;6.90;4.25;;;;;;;;;;5043669;28;20045;-84
2022/03/15 12:41:35;;;;;;;5.88;3.90;;;;;;;;;;5041599;28;20423;-85
2022/03/15 12:44:01;;;;;;;5.50;4.13;;;;;;;;;;5042237;28;20017;-85
2022/03/15 12:46:30;;;;;;;8.60;4.55;;;;;;;;;;5040528;28;20026;-84
2022/03/15 12:48:57;;;;;;;7.22;4.15;;;;;;;;;;5021181;28;20025;-86
2022/03/15 12:51:23;;;;;;;7.60;4.45;;;;;;;;;;5041419;28;20022;-81
2022/03/15 12:53:50;;;;;;;11.15;4.57;;;;;;;;;;5042784;28;20064;-84
2022/03/15 12:56:16;;;;;;;7.65;4.63;;;;;;;;;;5042366;28;20433;-82
2022/03/15 12:58:42;;;;;;;5.95;3.45;;;;;;;;;;5041610;28;20032;-80
2022/03/15 13:01:09;;;;;;;7.20;3.47;;;;;;;;;;5040445;28;20040;-84
2022/03/15 13:03:38;;;;;;;5.65;3.10;;;;;;;;;;5040515;28;20025;-83
2022/03/15 13:06:04;;;;;;;5.57;3.08;;;;;;;;;;5023989;28;20028;-89
2022/03/15 13:08:32;;;;;;;6.97;2.83;;;;;;;;;;5024429;28;20021;-87
2022/03/15 13:11:03;;;;;;;5.00;3.10;;;;;;;;;;5027802;28;20031;-86
2022/03/15 13:13:29;;;;;;;3.50;2.30;;;;;;;;;;5028520;28;20079;-84
2022/03/15 13:16:03;;;;;;;7.45;2.97;;;;;;;;;;5046008;28;20033;-87
2022/03/15 13:18:31;;;;;;;3.50;2.25;;;;;;;;;;5046873;28;20041;-86
2022/03/15 13:21:01;;;;;;;5.38;2.22;;;;;;;;;;5030713;28;20052;-87
2022/03/15 13:23:31;;;;;;;3.03;1.83;;;;;;;;;;5031415;28;20028;-87
2022/03/15 13:26:12;;;;;;;3.42;2.13;;;;;;;;;;5032053;28;20021;-86
2022/03/15 13:28:50;;;;;;;3.35;1.98;;;;;;;;;;5049617;28;20060;-85
2022/03/15 13:31:17;;;;;;;3.83;2.50;;;;;;;;;;5051731;28;20037;-86
2022/03/15 13:33:44;;;;;;;7.68;2.22;;;;;;;;;;5041718;28;20022;-86
2022/03/15 13:36:14;;;;;;;4.20;1.95;;;;;;;;;;5043355;28;20021;-84
2022/03/15 13:38:51;;;;;;;6.70;2.42;;;;;;;;;;5043112;28;20112;-85
2022/03/15 13:41:19;;;;;;;8.00;2.80;;;;;;;;;;5026200;28;20025;-85
2022/03/15 13:43:46;;;;;;;5.05;2.30;;;;;;;;;;5044335;28;20112;-86
2022/03/15 13:46:12;;;;;;;4.18;2.38;;;;;;;;;;5024889;28;20029;-83
2022/03/15 13:48:39;;;;;;;6.03;2.45;;;;;;;;;;5043699;28;20032;-82
2022/03/15 13:51:26;;;;;;;4.85;2.53;;;;;;;;;;5043690;28;20104;-85
2022/03/15 13:53:53;;;;;;;5.80;2.60;;;;;;;;;;5026459;28;20026;-85
2022/03/15 13:56:20;;;;;;;4.22;2.30;;;;;;;;;;5047046;28;20026;-84
2022/03/15 13:59:01;;;;;;;6.55;2.70;;;;;;;;;;5044596;28;20044;-85
2022/03/15 14:01:38;;;;;;;6.55;3.83;;;;;;;;;;5018824;28;20508;-85
2022/03/15 14:04:05;;;;;;;8.82;3.70;;;;;;;;;;5037231;28;20045;-85
2022/03/15 14:06:35;;;;;;;10.07;3.85;;;;;;;;;;5036509;28;20032;-84
2022/03/15 14:09:01;;;;;;;7.32;3.55;;;;;;;;;;5038975;28;20071;-86
2022/03/15 14:11:32;;;;;;;8.93;4.13;;;;;;;;;;5018949;28;20075;-85
2022/03/15 14:14:07;;;;;;;;;;;;;;;;;;5038599;28;20033;-86
2022/03/15 14:16:42;;;;;;;9.77;3.70;;;;;;;;;;5037084;28;19904;-83
2022/03/15 14:19:09;;;;;;;7.25;4.18;;;;;;;;;;5037404;28;20025;-84
2022/03/15 14:21:40;;;;;;;8.02;4.13;;;;;;;;;;5036928;28;20025;-85
2022/03/15 14:24:06;;;;;;;7.68;4.03;;;;;;;;;;5037836;28;20535;-84
2022/03/15 14:26:33;;;;;;;8.50;4.25;;;;;;;;;;5036726;28;20045;-84
2022/03/15 14:29:03;;;;;;;11.25;5.60;;;;;;;;;;5033872;28;20041;-83
2022/03/15 14:31:42;;;;;;;10.50;5.85;;;;;;;;;;5035691;28;20044;-85
2022/03/15 14:34:10;;;;;;;11.65;5.40;;;;;;;;;;5018183;28;20670;-84
2022/03/15 14:36:37;;;;;;;9.90;5.15;;;;;;;;;;5036069;28;20029;-85
2022/03/15 14:39:10;;;;;;;10.93;5.97;;;;;;;;;;5019160;28;20089;-87
2022/03/15 14:41:41;;;;;;;18.05;9.82;;;;;;;;;;5037170;28;20032;-86
2022/03/15 14:44:15;;;;;;;43.67;21.63;;;;;;;;;;5034890;28;20461;-85
2022/03/15 14:46:44;;;;;;;35.20;17.52;;;;;;;;;;5017288;28;20052;-83
2022/03/15 14:49:11;;;;;;;36.03;18.30;;;;;;;;;;5020700;28;20021;-84
2022/03/15 14:51:38;;;;;;;31.00;15.95;;;;;;;;;;5017214;28;20116;-85
2022/03/15 14:54:05;;;;;;;41.70;21.38;;;;;;;;;;5035294;28;20108;-83
2022/03/15 14:56:38;;;;;;;60.35;25.88;;;;;;;;;;5035414;28;20025;-83
2022/03/15 14:59:17;;;;;;;30.70;15.18;;;;;;;;;;5018407;28;20060;-84
2022/03/15 15:01:51;;;;;;;16.85;8.60;;;;;;;;;;5018494;28;20061;-86
2022/03/15 15:04:17;;;;;;;17.73;9.65;;;;;;;;;;5037571;28;20037;-86
2022/03/15 15:06:44;;;;;;;14.50;8.65;;;;;;;;;;5019002;28;20112;-85
2022/03/15 15:09:12;;;;;;;34.20;17.58;;;;;;;;;;5035509;28;20033;-84
2022/03/15 15:11:38;;;;;;;14.55;8.25;;;;;;;;;;5034573;28;20087;-85
2022/03/15 15:14:06;;;;;;;18.15;9.23;;;;;;;;;;5033636;28;20022;-84
2022/03/15 15:16:39;;;;;;;15.38;8.38;;;;;;;;;;5033056;23;20072;-86
2022/03/15 15:19:07;;;;;;;16.08;8.30;;;;;;;;;;5016618;28;20022;-85
2022/03/15 15:21:33;;;;;;;15.25;8.90;;;;;;;;;;5018582;28;20053;-85